ANZ27 YBBN-NZAA
Flight info
| Callsign | ANZ27 |
|---|---|
| Flight time | 1h 5m |
| Altitude | 37000 |
| Route | SCOTT4/19L SCOTT A464 UPLAR |
| Aircraft | B77W/H-SDE1E2E3FGHIJ2J3J4J5M1RWXY/LB1D1 |
Departure
| Time | 2026-05-06 09:24 |
|---|---|
| Airport | Brisbane International Airport (YBBN) |
Arrival
| Time | 2026-05-06 10:29 |
|---|---|
| Airport | Auckland International Airport (NZAA) |
| Time | Latitude | Longitude | Altitude | Speed | Heading |
|---|---|---|---|---|---|
| 2026-05-06 08:24 | -27.40473 | 153.11070 | 23 ft | 0 kts | 298° |
| 2026-05-06 09:07 | -27.40477 | 153.11078 | 23 ft | 4 kts | 296° |
| 2026-05-06 09:07 | -27.40486 | 153.11106 | 25 ft | 4 kts | 277° |
| 2026-05-06 09:07 | -27.40484 | 153.11135 | 26 ft | 4 kts | 247° |
| 2026-05-06 09:08 | -27.40470 | 153.11159 | 27 ft | 4 kts | 218° |
| 2026-05-06 09:08 | -27.40447 | 153.11175 | 27 ft | 4 kts | 204° |
| 2026-05-06 09:08 | -27.40430 | 153.11183 | 27 ft | 0 kts | 207° |
| 2026-05-06 09:14 | -27.40433 | 153.11181 | 26 ft | 1 kts | 207° |
| 2026-05-06 09:14 | -27.40448 | 153.11173 | 26 ft | 4 kts | 207° |
| 2026-05-06 09:15 | -27.40477 | 153.11157 | 25 ft | 6 kts | 204° |
| 2026-05-06 09:15 | -27.40520 | 153.11153 | 24 ft | 7 kts | 167° |
| 2026-05-06 09:15 | -27.40560 | 153.11191 | 24 ft | 8 kts | 122° |
| 2026-05-06 09:15 | -27.40576 | 153.11255 | 25 ft | 9 kts | 80° |
| 2026-05-06 09:16 | -27.40532 | 153.11310 | 26 ft | 10 kts | 29° |
| 2026-05-06 09:16 | -27.40460 | 153.11351 | 25 ft | 13 kts | 27° |
| 2026-05-06 09:16 | -27.40369 | 153.11404 | 24 ft | 16 kts | 27° |
| 2026-05-06 09:16 | -27.40260 | 153.11467 | 26 ft | 19 kts | 27° |
| 2026-05-06 09:17 | -27.40133 | 153.11541 | 23 ft | 22 kts | 27° |
| 2026-05-06 09:17 | -27.39988 | 153.11625 | 26 ft | 25 kts | 27° |
| 2026-05-06 09:17 | -27.39828 | 153.11715 | 24 ft | 27 kts | 26° |
| 2026-05-06 09:17 | -27.39652 | 153.11814 | 25 ft | 29 kts | 27° |
| 2026-05-06 09:18 | -27.39466 | 153.11921 | 26 ft | 31 kts | 27° |
| 2026-05-06 09:18 | -27.39283 | 153.12025 | 24 ft | 29 kts | 27° |
| 2026-05-06 09:18 | -27.39189 | 153.12079 | 27 ft | 0 kts | 27° |
| 2026-05-06 09:19 | -27.39188 | 153.12080 | 27 ft | 1 kts | 27° |
| 2026-05-06 09:19 | -27.39171 | 153.12089 | 25 ft | 5 kts | 27° |
| 2026-05-06 09:19 | -27.39123 | 153.12117 | 24 ft | 10 kts | 27° |
| 2026-05-06 09:20 | -27.39043 | 153.12162 | 26 ft | 15 kts | 27° |
| 2026-05-06 09:20 | -27.38933 | 153.12225 | 25 ft | 20 kts | 27° |
| 2026-05-06 09:20 | -27.38796 | 153.12304 | 24 ft | 24 kts | 27° |
| 2026-05-06 09:20 | -27.38633 | 153.12397 | 25 ft | 28 kts | 27° |
| 2026-05-06 09:21 | -27.38446 | 153.12503 | 26 ft | 32 kts | 27° |
| 2026-05-06 09:21 | -27.38254 | 153.12613 | 27 ft | 31 kts | 27° |
| 2026-05-06 09:21 | -27.38069 | 153.12720 | 23 ft | 29 kts | 27° |
| 2026-05-06 09:21 | -27.37892 | 153.12823 | 25 ft | 29 kts | 27° |
| 2026-05-06 09:22 | -27.37715 | 153.12923 | 24 ft | 29 kts | 27° |
| 2026-05-06 09:22 | -27.37537 | 153.13024 | 27 ft | 29 kts | 27° |
| 2026-05-06 09:22 | -27.37359 | 153.13125 | 25 ft | 29 kts | 27° |
| 2026-05-06 09:22 | -27.37272 | 153.13209 | 26 ft | 15 kts | 82° |
| 2026-05-06 09:23 | -27.37309 | 153.13319 | 24 ft | 15 kts | 116° |
| 2026-05-06 09:23 | -27.37373 | 153.13411 | 24 ft | 15 kts | 147° |
| 2026-05-06 09:23 | -27.37474 | 153.13424 | 26 ft | 15 kts | 198° |
| 2026-05-06 09:23 | -27.37568 | 153.13373 | 27 ft | 15 kts | 207° |
| 2026-05-06 09:24 | -27.37845 | 153.13214 | 24 ft | 98 kts | 207° |
| 2026-05-06 09:24 | -27.38803 | 153.12665 | 97 ft | 203 kts | 207° |
| 2026-05-06 09:24 | -27.40102 | 153.11924 | 1402 ft | 207 kts | 205° |
| 2026-05-06 09:24 | -27.41360 | 153.11324 | 2502 ft | 192 kts | 187° |
| 2026-05-06 09:25 | -27.42747 | 153.11302 | 2803 ft | 212 kts | 176° |
| 2026-05-06 09:25 | -27.44336 | 153.11336 | 3031 ft | 243 kts | 178° |
| 2026-05-06 09:25 | -27.46063 | 153.11344 | 3608 ft | 257 kts | 179° |
| 2026-05-06 09:25 | -27.47881 | 153.11339 | 4391 ft | 264 kts | 180° |
| 2026-05-06 09:26 | -27.49740 | 153.11324 | 5235 ft | 269 kts | 181° |
| 2026-05-06 09:26 | -27.51623 | 153.11303 | 6087 ft | 273 kts | 181° |
| 2026-05-06 09:26 | -27.53535 | 153.11277 | 6899 ft | 277 kts | 181° |
| 2026-05-06 09:26 | -27.55478 | 153.11250 | 7639 ft | 280 kts | 182° |
| 2026-05-06 09:27 | -27.57441 | 153.11221 | 8037 ft | 284 kts | 182° |
| 2026-05-06 09:27 | -27.59436 | 153.11198 | 8026 ft | 287 kts | 179° |
| 2026-05-06 09:27 | -27.61360 | 153.11710 | 8028 ft | 288 kts | 151° |
| 2026-05-06 09:27 | -27.62866 | 153.13186 | 8035 ft | 288 kts | 128° |
| 2026-05-06 09:28 | -27.64023 | 153.15040 | 8104 ft | 292 kts | 125° |
| 2026-05-06 09:28 | -27.65179 | 153.16910 | 8783 ft | 296 kts | 126° |
| 2026-05-06 09:28 | -27.66359 | 153.18815 | 9663 ft | 297 kts | 126° |
| 2026-05-06 09:28 | -27.67555 | 153.20742 | 10429 ft | 301 kts | 126° |
| 2026-05-06 09:29 | -27.68781 | 153.22707 | 10999 ft | 314 kts | 126° |
| 2026-05-06 09:29 | -27.70095 | 153.24809 | 11214 ft | 342 kts | 126° |
| 2026-05-06 09:29 | -27.71485 | 153.27110 | 11406 ft | 367 kts | 120° |
| 2026-05-06 09:29 | -27.72468 | 153.29838 | 11939 ft | 382 kts | 103° |
| 2026-05-06 09:30 | -27.72802 | 153.32836 | 12743 ft | 389 kts | 90° |
| 2026-05-06 09:30 | -27.72794 | 153.35911 | 13630 ft | 395 kts | 88° |
| 2026-05-06 09:30 | -27.72777 | 153.39043 | 14482 ft | 402 kts | 88° |
| 2026-05-06 09:30 | -27.72782 | 153.42219 | 15344 ft | 408 kts | 89° |
| 2026-05-06 09:31 | -27.72806 | 153.45448 | 16202 ft | 414 kts | 89° |
| 2026-05-06 09:31 | -27.72838 | 153.48675 | 17012 ft | 418 kts | 89° |
| 2026-05-06 09:31 | -27.73141 | 153.51974 | 17686 ft | 430 kts | 101° |
| 2026-05-06 09:31 | -27.74020 | 153.55226 | 18137 ft | 436 kts | 111° |
| 2026-05-06 09:32 | -27.75413 | 153.58280 | 18122 ft | 437 kts | 121° |
| 2026-05-06 09:32 | -27.77001 | 153.61204 | 18112 ft | 436 kts | 121° |
| 2026-05-06 09:32 | -27.78582 | 153.64139 | 18311 ft | 440 kts | 121° |
| 2026-05-06 09:32 | -27.80167 | 153.67133 | 19012 ft | 446 kts | 121° |
| 2026-05-06 09:33 | -27.81751 | 153.70168 | 19746 ft | 451 kts | 120° |
| 2026-05-06 09:33 | -27.83346 | 153.73247 | 20454 ft | 457 kts | 120° |
| 2026-05-06 09:33 | -27.84959 | 153.76367 | 21088 ft | 464 kts | 121° |
| 2026-05-06 09:33 | -27.86591 | 153.79540 | 21725 ft | 471 kts | 120° |
| 2026-05-06 09:34 | -27.88084 | 153.82865 | 22329 ft | 477 kts | 115° |
| 2026-05-06 09:34 | -27.89492 | 153.86306 | 22949 ft | 484 kts | 114° |
| 2026-05-06 09:34 | -27.90876 | 153.89747 | 23545 ft | 491 kts | 114° |
| 2026-05-06 09:34 | -27.92312 | 153.93330 | 24079 ft | 497 kts | 114° |
| 2026-05-06 09:35 | -27.93733 | 153.96865 | 24605 ft | 502 kts | 114° |
| 2026-05-06 09:35 | -27.95188 | 154.00473 | 25157 ft | 506 kts | 114° |
| 2026-05-06 09:35 | -27.96656 | 154.04101 | 25693 ft | 511 kts | 115° |
| 2026-05-06 09:35 | -27.98147 | 154.07776 | 26181 ft | 516 kts | 115° |
| 2026-05-06 09:36 | -27.99657 | 154.11497 | 26670 ft | 522 kts | 115° |
| 2026-05-06 09:36 | -28.01179 | 154.15246 | 27168 ft | 527 kts | 115° |
| 2026-05-06 09:36 | -28.02712 | 154.19028 | 27672 ft | 531 kts | 115° |
| 2026-05-06 09:36 | -28.04257 | 154.22845 | 28167 ft | 535 kts | 115° |
| 2026-05-06 09:37 | -28.05812 | 154.26692 | 28626 ft | 540 kts | 115° |
| 2026-05-06 09:37 | -28.07379 | 154.30573 | 29075 ft | 545 kts | 115° |
| 2026-05-06 09:37 | -28.08963 | 154.34498 | 29540 ft | 549 kts | 115° |
| 2026-05-06 09:37 | -28.10553 | 154.38443 | 29959 ft | 553 kts | 114° |
| 2026-05-06 09:38 | -28.12152 | 154.42417 | 30359 ft | 556 kts | 115° |
| 2026-05-06 09:38 | -28.13762 | 154.46420 | 30640 ft | 561 kts | 115° |
| 2026-05-06 09:38 | -28.15369 | 154.50418 | 30887 ft | 566 kts | 115° |
| 2026-05-06 09:38 | -28.17007 | 154.54500 | 31130 ft | 570 kts | 115° |
| 2026-05-06 09:39 | -28.18652 | 154.58602 | 31388 ft | 574 kts | 115° |
| 2026-05-06 09:39 | -28.20309 | 154.62739 | 31639 ft | 578 kts | 115° |
| 2026-05-06 09:39 | -28.21971 | 154.66893 | 31891 ft | 580 kts | 115° |
| 2026-05-06 09:39 | -28.23643 | 154.71077 | 32217 ft | 581 kts | 115° |
| 2026-05-06 09:40 | -28.25315 | 154.75267 | 32557 ft | 582 kts | 116° |
| 2026-05-06 09:40 | -28.26985 | 154.79455 | 32875 ft | 584 kts | 116° |
| 2026-05-06 09:40 | -28.30336 | 154.87872 | 33458 ft | 587 kts | 116° |
| 2026-05-06 09:41 | -28.32017 | 154.92101 | 33759 ft | 588 kts | 116° |
| 2026-05-06 09:41 | -28.33702 | 154.96345 | 34057 ft | 590 kts | 116° |
| 2026-05-06 09:41 | -28.35385 | 155.00589 | 34325 ft | 590 kts | 116° |
| 2026-05-06 09:41 | -28.37078 | 155.04862 | 34632 ft | 590 kts | 116° |
| 2026-05-06 09:42 | -28.38735 | 155.09051 | 34910 ft | 590 kts | 116° |
| 2026-05-06 09:42 | -28.40416 | 155.13303 | 35169 ft | 591 kts | 116° |
| 2026-05-06 09:42 | -28.42101 | 155.17570 | 35422 ft | 592 kts | 116° |
| 2026-05-06 09:42 | -28.43786 | 155.21841 | 35687 ft | 593 kts | 116° |
| 2026-05-06 09:43 | -28.45473 | 155.26123 | 35938 ft | 593 kts | 116° |
| 2026-05-06 09:43 | -28.47157 | 155.30403 | 36195 ft | 594 kts | 116° |
| 2026-05-06 09:43 | -28.48844 | 155.34692 | 36434 ft | 594 kts | 116° |
| 2026-05-06 09:43 | -28.50533 | 155.38996 | 36670 ft | 595 kts | 116° |
| 2026-05-06 09:44 | -28.52216 | 155.43284 | 36906 ft | 595 kts | 116° |
| 2026-05-06 09:44 | -28.53906 | 155.47598 | 37034 ft | 598 kts | 116° |
| 2026-05-06 09:44 | -28.57298 | 155.56268 | 37094 ft | 600 kts | 116° |
| 2026-05-06 09:45 | -28.60667 | 155.64908 | 37080 ft | 594 kts | 116° |
| 2026-05-06 09:45 | -28.76876 | 156.06654 | 37114 ft | 584 kts | 116° |
| 2026-05-06 09:46 | -29.37301 | 157.35324 | 37423 ft | 587 kts | 124° |
| 2026-05-06 09:46 | -29.47496 | 157.55404 | 37240 ft | 589 kts | 124° |
| 2026-05-06 09:47 | -29.52655 | 157.65238 | 37083 ft | 574 kts | 126° |
| 2026-05-06 09:47 | -29.66302 | 157.90734 | 37167 ft | 571 kts | 125° |
| 2026-05-06 09:48 | -29.80246 | 158.17059 | 37107 ft | 587 kts | 125° |
| 2026-05-06 09:48 | -29.97034 | 158.48993 | 37023 ft | 571 kts | 125° |
| 2026-05-06 09:49 | -30.13358 | 158.80264 | 37136 ft | 572 kts | 124° |
| 2026-05-06 09:49 | -30.29844 | 159.12110 | 37126 ft | 582 kts | 124° |
| 2026-05-06 09:50 | -30.46117 | 159.43803 | 37006 ft | 563 kts | 124° |
| 2026-05-06 09:50 | -30.62052 | 159.75068 | 37109 ft | 568 kts | 124° |
| 2026-05-06 09:51 | -30.70144 | 159.91047 | 36937 ft | 578 kts | 124° |
| 2026-05-06 09:51 | -30.78250 | 160.07126 | 36944 ft | 572 kts | 123° |
| 2026-05-06 09:51 | -30.86176 | 160.22914 | 36881 ft | 560 kts | 123° |
| 2026-05-06 09:51 | -31.00960 | 160.52505 | 37036 ft | 550 kts | 123° |
| 2026-05-06 09:52 | -31.31352 | 161.14044 | 37271 ft | 550 kts | 122° |
| 2026-05-06 09:52 | -31.61916 | 161.76979 | 37292 ft | 554 kts | 122° |
| 2026-05-06 09:52 | -31.92090 | 162.40245 | 37139 ft | 554 kts | 122° |
| 2026-05-06 09:52 | -32.21338 | 163.02594 | 37047 ft | 550 kts | 122° |
| 2026-05-06 09:53 | -32.79361 | 164.29479 | 37116 ft | 540 kts | 121° |
| 2026-05-06 09:53 | -33.07339 | 164.92237 | 37012 ft | 532 kts | 120° |
| 2026-05-06 09:53 | -33.34519 | 165.54427 | 37053 ft | 526 kts | 120° |
| 2026-05-06 09:54 | -33.61327 | 166.16757 | 37211 ft | 527 kts | 119° |
| 2026-05-06 09:54 | -33.87898 | 166.79650 | 37254 ft | 525 kts | 118° |
| 2026-05-06 09:54 | -34.14063 | 167.42882 | 37142 ft | 527 kts | 118° |
| 2026-05-06 09:54 | -34.39861 | 168.06226 | 37227 ft | 522 kts | 118° |
| 2026-05-06 09:55 | -34.89773 | 169.32450 | 37234 ft | 517 kts | 117° |
| 2026-05-06 09:55 | -35.37637 | 170.58242 | 37260 ft | 509 kts | 116° |
| 2026-05-06 09:56 | -35.60486 | 171.20517 | 37291 ft | 506 kts | 113° |
| 2026-05-06 09:56 | -35.63039 | 171.28591 | 37285 ft | 506 kts | 113° |
| 2026-05-06 09:57 | -35.65607 | 171.36624 | 37288 ft | 505 kts | 113° |
| 2026-05-06 09:57 | -35.68212 | 171.44578 | 37231 ft | 505 kts | 114° |
| 2026-05-06 09:58 | -35.70837 | 171.52538 | 37293 ft | 505 kts | 114° |
| 2026-05-06 09:58 | -35.73474 | 171.60552 | 37295 ft | 506 kts | 114° |
| 2026-05-06 09:59 | -35.76108 | 171.68591 | 37297 ft | 506 kts | 114° |
| 2026-05-06 09:59 | -35.78736 | 171.76641 | 37296 ft | 506 kts | 113° |
| 2026-05-06 10:00 | -35.81356 | 171.84691 | 37301 ft | 506 kts | 113° |
| 2026-05-06 10:00 | -35.83972 | 171.92749 | 37307 ft | 505 kts | 113° |
| 2026-05-06 10:01 | -35.86577 | 172.00794 | 37305 ft | 505 kts | 113° |
| 2026-05-06 10:01 | -35.89170 | 172.08825 | 37307 ft | 504 kts | 113° |
| 2026-05-06 10:02 | -35.91748 | 172.16832 | 37285 ft | 496 kts | 113° |
| 2026-05-06 10:02 | -35.94257 | 172.24646 | 37306 ft | 490 kts | 113° |
| 2026-05-06 10:03 | -35.95501 | 172.28531 | 37113 ft | 485 kts | 113° |
| 2026-05-06 10:03 | -35.96742 | 172.32406 | 36547 ft | 484 kts | 113° |
| 2026-05-06 10:03 | -35.97974 | 172.36258 | 36134 ft | 479 kts | 113° |
| 2026-05-06 10:03 | -35.99191 | 172.40069 | 35656 ft | 475 kts | 113° |
| 2026-05-06 10:04 | -36.00395 | 172.43848 | 35218 ft | 471 kts | 113° |
| 2026-05-06 10:04 | -36.01589 | 172.47597 | 34775 ft | 468 kts | 113° |
| 2026-05-06 10:04 | -36.02775 | 172.51325 | 34317 ft | 465 kts | 113° |
| 2026-05-06 10:04 | -36.03953 | 172.55032 | 33824 ft | 461 kts | 113° |
| 2026-05-06 10:05 | -36.05121 | 172.58714 | 33360 ft | 458 kts | 112° |
| 2026-05-06 10:05 | -36.06277 | 172.62363 | 32894 ft | 454 kts | 112° |
| 2026-05-06 10:05 | -36.07424 | 172.65986 | 32451 ft | 450 kts | 112° |
| 2026-05-06 10:05 | -36.08557 | 172.69571 | 32021 ft | 446 kts | 112° |
| 2026-05-06 10:06 | -36.09681 | 172.73130 | 31591 ft | 443 kts | 112° |
| 2026-05-06 10:06 | -36.10781 | 172.76620 | 31164 ft | 439 kts | 112° |
| 2026-05-06 10:06 | -36.11884 | 172.80123 | 30737 ft | 436 kts | 112° |
| 2026-05-06 10:06 | -36.12980 | 172.83606 | 30307 ft | 433 kts | 112° |
| 2026-05-06 10:07 | -36.14070 | 172.87076 | 29825 ft | 430 kts | 112° |
| 2026-05-06 10:07 | -36.15145 | 172.90503 | 29348 ft | 426 kts | 112° |
| 2026-05-06 10:07 | -36.16214 | 172.93912 | 28912 ft | 422 kts | 112° |
| 2026-05-06 10:07 | -36.17272 | 172.97292 | 28461 ft | 418 kts | 111° |
| 2026-05-06 10:08 | -36.18319 | 173.00639 | 28048 ft | 415 kts | 111° |
| 2026-05-06 10:08 | -36.19357 | 173.03962 | 27635 ft | 411 kts | 111° |
| 2026-05-06 10:08 | -36.20383 | 173.07251 | 27219 ft | 408 kts | 111° |
| 2026-05-06 10:08 | -36.21402 | 173.10522 | 26777 ft | 405 kts | 111° |
| 2026-05-06 10:09 | -36.22402 | 173.13735 | 26385 ft | 403 kts | 111° |
| 2026-05-06 10:09 | -36.23406 | 173.16964 | 25984 ft | 400 kts | 111° |
| 2026-05-06 10:09 | -36.24401 | 173.20170 | 25581 ft | 398 kts | 111° |
| 2026-05-06 10:09 | -36.25390 | 173.23357 | 25162 ft | 396 kts | 111° |
| 2026-05-06 10:10 | -36.26374 | 173.26530 | 24756 ft | 394 kts | 111° |
| 2026-05-06 10:10 | -36.27353 | 173.29694 | 24353 ft | 392 kts | 111° |
| 2026-05-06 10:10 | -36.28328 | 173.32846 | 23931 ft | 391 kts | 111° |
| 2026-05-06 10:10 | -36.29299 | 173.35990 | 23465 ft | 389 kts | 111° |
| 2026-05-06 10:11 | -36.30265 | 173.39122 | 23029 ft | 387 kts | 111° |
| 2026-05-06 10:11 | -36.31212 | 173.42194 | 22606 ft | 384 kts | 111° |
| 2026-05-06 10:11 | -36.32161 | 173.45278 | 22213 ft | 382 kts | 111° |
| 2026-05-06 10:11 | -36.33106 | 173.48347 | 21806 ft | 379 kts | 111° |
| 2026-05-06 10:12 | -36.34045 | 173.51406 | 21398 ft | 377 kts | 110° |
| 2026-05-06 10:12 | -36.34973 | 173.54430 | 21009 ft | 375 kts | 111° |
| 2026-05-06 10:12 | -36.35897 | 173.57444 | 20598 ft | 373 kts | 111° |
| 2026-05-06 10:12 | -36.36817 | 173.60448 | 20199 ft | 371 kts | 111° |
| 2026-05-06 10:13 | -36.37730 | 173.63433 | 19816 ft | 369 kts | 111° |
| 2026-05-06 10:13 | -36.38639 | 173.66409 | 19430 ft | 367 kts | 111° |
| 2026-05-06 10:13 | -36.39601 | 173.69333 | 18993 ft | 363 kts | 118° |
| 2026-05-06 10:13 | -36.41127 | 173.71786 | 18597 ft | 356 kts | 137° |
| 2026-05-06 10:14 | -36.42905 | 173.73859 | 18179 ft | 354 kts | 137° |
| 2026-05-06 10:14 | -36.44694 | 173.75959 | 17752 ft | 353 kts | 137° |
| 2026-05-06 10:14 | -36.46466 | 173.78068 | 17351 ft | 351 kts | 136° |
| 2026-05-06 10:14 | -36.48215 | 173.80170 | 16962 ft | 349 kts | 136° |
| 2026-05-06 10:15 | -36.49951 | 173.82270 | 16570 ft | 347 kts | 135° |
| 2026-05-06 10:15 | -36.51682 | 173.84373 | 16174 ft | 346 kts | 135° |
| 2026-05-06 10:15 | -36.53405 | 173.86470 | 15785 ft | 344 kts | 135° |
| 2026-05-06 10:15 | -36.55112 | 173.88550 | 15407 ft | 343 kts | 135° |
| 2026-05-06 10:16 | -36.56788 | 173.90595 | 15029 ft | 342 kts | 135° |
| 2026-05-06 10:16 | -36.58502 | 173.92687 | 14642 ft | 340 kts | 134° |
| 2026-05-06 10:16 | -36.60169 | 173.94722 | 14274 ft | 339 kts | 134° |
| 2026-05-06 10:16 | -36.61854 | 173.96778 | 13858 ft | 339 kts | 135° |
| 2026-05-06 10:17 | -36.63540 | 173.98838 | 13438 ft | 337 kts | 134° |
| 2026-05-06 10:17 | -36.65211 | 174.00883 | 13033 ft | 336 kts | 134° |
| 2026-05-06 10:17 | -36.66875 | 174.02919 | 12597 ft | 335 kts | 134° |
| 2026-05-06 10:17 | -36.68557 | 174.04980 | 11979 ft | 341 kts | 134° |
| 2026-05-06 10:18 | -36.70250 | 174.07056 | 11546 ft | 341 kts | 134° |
| 2026-05-06 10:18 | -36.71940 | 174.09128 | 11146 ft | 340 kts | 134° |
| 2026-05-06 10:18 | -36.73598 | 174.11164 | 10759 ft | 338 kts | 134° |
| 2026-05-06 10:18 | -36.75251 | 174.13193 | 10370 ft | 325 kts | 134° |
| 2026-05-06 10:19 | -36.76816 | 174.15115 | 10230 ft | 309 kts | 134° |
| 2026-05-06 10:19 | -36.78327 | 174.16974 | 10077 ft | 301 kts | 134° |
| 2026-05-06 10:19 | -36.79796 | 174.18782 | 9877 ft | 294 kts | 133° |
| 2026-05-06 10:19 | -36.81247 | 174.20568 | 9543 ft | 293 kts | 133° |
| 2026-05-06 10:20 | -36.82691 | 174.22348 | 9227 ft | 291 kts | 134° |
| 2026-05-06 10:20 | -36.84125 | 174.24116 | 8908 ft | 289 kts | 134° |
| 2026-05-06 10:20 | -36.85558 | 174.25883 | 8580 ft | 289 kts | 134° |
| 2026-05-06 10:20 | -36.86986 | 174.27644 | 8253 ft | 288 kts | 133° |
| 2026-05-06 10:21 | -36.88405 | 174.29395 | 7924 ft | 287 kts | 133° |
| 2026-05-06 10:21 | -36.89825 | 174.31150 | 7605 ft | 287 kts | 133° |
| 2026-05-06 10:21 | -36.91246 | 174.32907 | 7277 ft | 286 kts | 133° |
| 2026-05-06 10:21 | -36.92642 | 174.34635 | 6966 ft | 284 kts | 134° |
| 2026-05-06 10:22 | -36.94026 | 174.36345 | 6616 ft | 276 kts | 133° |
| 2026-05-06 10:22 | -36.95393 | 174.38036 | 6299 ft | 275 kts | 133° |
| 2026-05-06 10:22 | -36.96755 | 174.39724 | 5976 ft | 275 kts | 133° |
| 2026-05-06 10:22 | -36.98114 | 174.41410 | 5658 ft | 275 kts | 133° |
| 2026-05-06 10:23 | -36.99472 | 174.43094 | 5340 ft | 275 kts | 133° |
| 2026-05-06 10:23 | -37.00827 | 174.44776 | 5030 ft | 274 kts | 133° |
| 2026-05-06 10:23 | -37.02180 | 174.46454 | 4696 ft | 273 kts | 132° |
| 2026-05-06 10:23 | -37.03528 | 174.48127 | 4370 ft | 268 kts | 132° |
| 2026-05-06 10:24 | -37.04812 | 174.49721 | 4228 ft | 252 kts | 131° |
| 2026-05-06 10:24 | -37.06022 | 174.51222 | 4100 ft | 238 kts | 132° |
| 2026-05-06 10:24 | -37.07147 | 174.52661 | 3876 ft | 229 kts | 124° |
| 2026-05-06 10:24 | -37.07705 | 174.54409 | 3616 ft | 211 kts | 84° |
| 2026-05-06 10:25 | -37.07375 | 174.56135 | 3431 ft | 200 kts | 66° |
| 2026-05-06 10:25 | -37.06929 | 174.57763 | 3201 ft | 196 kts | 66° |
| 2026-05-06 10:25 | -37.06502 | 174.59366 | 2955 ft | 193 kts | 66° |
| 2026-05-06 10:25 | -37.06076 | 174.60923 | 2719 ft | 181 kts | 66° |
| 2026-05-06 10:26 | -37.05692 | 174.62335 | 2441 ft | 162 kts | 65° |
| 2026-05-06 10:26 | -37.05340 | 174.63595 | 2291 ft | 149 kts | 66° |
| 2026-05-06 10:26 | -37.05015 | 174.64774 | 2062 ft | 137 kts | 65° |
| 2026-05-06 10:26 | -37.04722 | 174.65845 | 1893 ft | 127 kts | 65° |
| 2026-05-06 10:27 | -37.04422 | 174.66922 | 1716 ft | 134 kts | 66° |
| 2026-05-06 10:27 | -37.04117 | 174.68028 | 1535 ft | 137 kts | 66° |
| 2026-05-06 10:27 | -37.03812 | 174.69142 | 1350 ft | 133 kts | 66° |
| 2026-05-06 10:27 | -37.03512 | 174.70233 | 1169 ft | 133 kts | 66° |
| 2026-05-06 10:28 | -37.03208 | 174.71333 | 1004 ft | 135 kts | 68° |
| 2026-05-06 10:28 | -37.02899 | 174.72457 | 812 ft | 139 kts | 68° |
| 2026-05-06 10:28 | -37.02582 | 174.73608 | 639 ft | 139 kts | 70° |
| 2026-05-06 10:28 | -37.02267 | 174.74754 | 451 ft | 140 kts | 71° |
| 2026-05-06 10:29 | -37.01954 | 174.75896 | 256 ft | 138 kts | 71° |
| 2026-05-06 10:29 | -37.01638 | 174.77042 | 81 ft | 142 kts | 71° |
| 2026-05-06 10:29 | -37.01330 | 174.78158 | 27 ft | 124 kts | 71° |
| 2026-05-06 10:29 | -37.01141 | 174.78833 | 29 ft | 49 kts | 67° |
| 2026-05-06 10:30 | -37.01019 | 174.79015 | 31 ft | 18 kts | 41° |
| 2026-05-06 10:30 | -37.00938 | 174.79080 | 27 ft | 9 kts | 360° |
| 2026-05-06 10:30 | -37.00905 | 174.79022 | 30 ft | 10 kts | 261° |
| 2026-05-06 10:30 | -37.00924 | 174.78936 | 31 ft | 11 kts | 253° |
| 2026-05-06 10:31 | -37.00953 | 174.78831 | 29 ft | 14 kts | 249° |
| 2026-05-06 10:31 | -37.00994 | 174.78692 | 32 ft | 20 kts | 250° |
| 2026-05-06 10:31 | -37.01045 | 174.78505 | 31 ft | 22 kts | 251° |
| 2026-05-06 10:31 | -37.01069 | 174.78345 | 31 ft | 18 kts | 285° |
| 2026-05-06 10:32 | -37.01001 | 174.78256 | 32 ft | 14 kts | 324° |
| 2026-05-06 10:32 | -37.00958 | 174.78206 | 32 ft | 4 kts | 326° |
| 2026-05-06 10:32 | -37.00931 | 174.78202 | 32 ft | 4 kts | 4° |
| 2026-05-06 10:32 | -37.00898 | 174.78213 | 32 ft | 6 kts | 18° |
| 2026-05-06 10:33 | -37.00871 | 174.78221 | 31 ft | 0 kts | 12° |